sensor_id;sensor_type;location;lat;lon;timestamp;P1;durP1;ratioP1;P2;durP2;ratioP2
37593;SDS011;23441;50.856;6.076;2023-02-04T00:01:34;16.30;;;3.95;;
37593;SDS011;23441;50.856;6.076;2023-02-04T00:03:59;19.98;;;4.88;;
37593;SDS011;23441;50.856;6.076;2023-02-04T00:06:26;19.02;;;4.25;;
37593;SDS011;23441;50.856;6.076;2023-02-04T00:08:52;14.30;;;4.15;;
37593;SDS011;23441;50.856;6.076;2023-02-04T00:11:17;19.63;;;4.03;;
37593;SDS011;23441;50.856;6.076;2023-02-04T00:13:43;14.77;;;3.47;;
37593;SDS011;23441;50.856;6.076;2023-02-04T00:16:08;15.48;;;3.90;;
37593;SDS011;23441;50.856;6.076;2023-02-04T00:18:34;16.08;;;3.78;;
37593;SDS011;23441;50.856;6.076;2023-02-04T00:21:00;19.58;;;3.40;;
37593;SDS011;23441;50.856;6.076;2023-02-04T00:23:25;20.60;;;3.55;;
37593;SDS011;23441;50.856;6.076;2023-02-04T00:25:51;15.35;;;3.17;;
37593;SDS011;23441;50.856;6.076;2023-02-04T00:28:16;17.15;;;3.15;;
37593;SDS011;23441;50.856;6.076;2023-02-04T00:30:42;16.02;;;3.53;;
37593;SDS011;23441;50.856;6.076;2023-02-04T00:33:08;19.65;;;3.80;;
37593;SDS011;23441;50.856;6.076;2023-02-04T00:35:34;24.35;;;3.97;;
37593;SDS011;23441;50.856;6.076;2023-02-04T00:38:01;17.98;;;3.10;;
37593;SDS011;23441;50.856;6.076;2023-02-04T00:40:28;20.65;;;3.63;;
37593;SDS011;23441;50.856;6.076;2023-02-04T00:42:53;11.55;;;3.55;;
37593;SDS011;23441;50.856;6.076;2023-02-04T00:45:19;16.83;;;3.10;;
37593;SDS011;23441;50.856;6.076;2023-02-04T00:47:45;15.00;;;3.67;;
37593;SDS011;23441;50.856;6.076;2023-02-04T00:50:10;18.10;;;3.00;;
37593;SDS011;23441;50.856;6.076;2023-02-04T00:52:36;15.23;;;2.80;;
37593;SDS011;23441;50.856;6.076;2023-02-04T00:55:02;11.98;;;2.90;;
37593;SDS011;23441;50.856;6.076;2023-02-04T00:57:28;13.10;;;2.50;;
37593;SDS011;23441;50.856;6.076;2023-02-04T00:59:54;13.65;;;2.67;;
37593;SDS011;23441;50.856;6.076;2023-02-04T01:02:19;14.55;;;3.40;;
37593;SDS011;23441;50.856;6.076;2023-02-04T01:04:45;16.92;;;2.97;;
37593;SDS011;23441;50.856;6.076;2023-02-04T01:07:10;19.58;;;2.72;;
37593;SDS011;23441;50.856;6.076;2023-02-04T01:09:36;21.02;;;2.67;;
37593;SDS011;23441;50.856;6.076;2023-02-04T01:12:02;19.00;;;3.00;;
37593;SDS011;23441;50.856;6.076;2023-02-04T01:14:27;19.63;;;3.20;;
37593;SDS011;23441;50.856;6.076;2023-02-04T01:16:53;11.82;;;2.75;;
37593;SDS011;23441;50.856;6.076;2023-02-04T01:19:19;8.50;;;2.30;;
37593;SDS011;23441;50.856;6.076;2023-02-04T01:21:45;14.73;;;3.50;;
37593;SDS011;23441;50.856;6.076;2023-02-04T01:24:10;17.40;;;3.17;;
37593;SDS011;23441;50.856;6.076;2023-02-04T01:26:36;16.48;;;2.92;;
37593;SDS011;23441;50.856;6.076;2023-02-04T01:29:02;18.60;;;2.67;;
37593;SDS011;23441;50.856;6.076;2023-02-04T01:31:28;14.85;;;3.00;;
37593;SDS011;23441;50.856;6.076;2023-02-04T01:33:55;18.67;;;3.83;;
37593;SDS011;23441;50.856;6.076;2023-02-04T01:36:21;14.23;;;2.78;;
37593;SDS011;23441;50.856;6.076;2023-02-04T01:38:47;12.68;;;2.20;;
37593;SDS011;23441;50.856;6.076;2023-02-04T01:41:14;22.67;;;3.50;;
37593;SDS011;23441;50.856;6.076;2023-02-04T01:43:41;17.20;;;2.85;;
37593;SDS011;23441;50.856;6.076;2023-02-04T01:46:06;15.88;;;4.03;;
37593;SDS011;23441;50.856;6.076;2023-02-04T01:48:32;19.40;;;3.08;;
37593;SDS011;23441;50.856;6.076;2023-02-04T01:51:02;17.38;;;3.85;;
37593;SDS011;23441;50.856;6.076;2023-02-04T01:53:31;14.73;;;3.20;;
37593;SDS011;23441;50.856;6.076;2023-02-04T01:55:58;12.10;;;3.10;;
37593;SDS011;23441;50.856;6.076;2023-02-04T01:58:24;18.40;;;3.35;;
37593;SDS011;23441;50.856;6.076;2023-02-04T02:00:49;21.33;;;3.42;;
37593;SDS011;23441;50.856;6.076;2023-02-04T02:03:15;16.60;;;3.92;;
37593;SDS011;23441;50.856;6.076;2023-02-04T02:05:48;15.73;;;3.67;;
37593;SDS011;23441;50.856;6.076;2023-02-04T02:08:16;21.40;;;3.28;;
37593;SDS011;23441;50.856;6.076;2023-02-04T02:10:42;13.45;;;3.13;;
37593;SDS011;23441;50.856;6.076;2023-02-04T02:13:11;17.48;;;2.65;;
37593;SDS011;23441;50.856;6.076;2023-02-04T02:15:40;16.75;;;3.83;;
37593;SDS011;23441;50.856;6.076;2023-02-04T02:18:06;16.88;;;3.15;;
37593;SDS011;23441;50.856;6.076;2023-02-04T02:20:32;21.27;;;3.30;;
37593;SDS011;23441;50.856;6.076;2023-02-04T02:23:09;15.27;;;3.00;;
37593;SDS011;23441;50.856;6.076;2023-02-04T02:25:47;16.10;;;2.90;;
37593;SDS011;23441;50.856;6.076;2023-02-04T02:28:15;15.10;;;3.38;;
37593;SDS011;23441;50.856;6.076;2023-02-04T02:30:44;13.93;;;3.35;;
37593;SDS011;23441;50.856;6.076;2023-02-04T02:33:14;11.70;;;2.78;;
37593;SDS011;23441;50.856;6.076;2023-02-04T02:35:42;12.30;;;2.30;;
37593;SDS011;23441;50.856;6.076;2023-02-04T02:38:12;13.57;;;2.78;;
37593;SDS011;23441;50.856;6.076;2023-02-04T02:40:38;13.00;;;2.88;;
37593;SDS011;23441;50.856;6.076;2023-02-04T02:43:04;16.77;;;2.83;;
37593;SDS011;23441;50.856;6.076;2023-02-04T02:45:31;15.40;;;2.92;;
37593;SDS011;23441;50.856;6.076;2023-02-04T02:47:58;9.68;;;2.25;;
37593;SDS011;23441;50.856;6.076;2023-02-04T02:50:27;18.85;;;3.13;;
37593;SDS011;23441;50.856;6.076;2023-02-04T02:52:55;14.05;;;2.22;;
37593;SDS011;23441;50.856;6.076;2023-02-04T02:55:22;13.05;;;2.17;;
37593;SDS011;23441;50.856;6.076;2023-02-04T02:57:50;12.82;;;2.53;;
37593;SDS011;23441;50.856;6.076;2023-02-04T03:02:52;19.08;;;2.55;;
37593;SDS011;23441;50.856;6.076;2023-02-04T03:05:31;15.77;;;2.30;;
37593;SDS011;23441;50.856;6.076;2023-02-04T03:08:00;14.38;;;2.67;;
37593;SDS011;23441;50.856;6.076;2023-02-04T03:10:27;15.57;;;3.00;;
37593;SDS011;23441;50.856;6.076;2023-02-04T03:12:52;17.83;;;2.92;;
37593;SDS011;23441;50.856;6.076;2023-02-04T03:15:18;11.63;;;2.17;;
37593;SDS011;23441;50.856;6.076;2023-02-04T03:17:44;12.98;;;2.38;;
37593;SDS011;23441;50.856;6.076;2023-02-04T03:20:10;13.52;;;2.40;;
37593;SDS011;23441;50.856;6.076;2023-02-04T03:22:37;13.07;;;3.35;;
37593;SDS011;23441;50.856;6.076;2023-02-04T03:25:03;17.35;;;2.70;;
37593;SDS011;23441;50.856;6.076;2023-02-04T03:27:29;32.25;;;4.35;;
37593;SDS011;23441;50.856;6.076;2023-02-04T03:29:55;18.80;;;3.67;;
37593;SDS011;23441;50.856;6.076;2023-02-04T03:32:20;13.55;;;3.53;;
37593;SDS011;23441;50.856;6.076;2023-02-04T03:34:46;16.50;;;3.50;;
37593;SDS011;23441;50.856;6.076;2023-02-04T03:37:12;18.42;;;3.58;;
37593;SDS011;23441;50.856;6.076;2023-02-04T03:39:37;15.43;;;3.20;;
37593;SDS011;23441;50.856;6.076;2023-02-04T03:42:03;13.98;;;3.00;;
37593;SDS011;23441;50.856;6.076;2023-02-04T03:44:28;12.73;;;3.28;;
37593;SDS011;23441;50.856;6.076;2023-02-04T03:46:54;13.88;;;2.58;;
37593;SDS011;23441;50.856;6.076;2023-02-04T03:49:21;22.15;;;2.88;;
37593;SDS011;23441;50.856;6.076;2023-02-04T03:51:46;11.50;;;3.00;;
37593;SDS011;23441;50.856;6.076;2023-02-04T03:54:12;18.67;;;2.38;;
37593;SDS011;23441;50.856;6.076;2023-02-04T03:56:38;12.73;;;2.95;;
37593;SDS011;23441;50.856;6.076;2023-02-04T03:59:03;12.73;;;3.15;;
37593;SDS011;23441;50.856;6.076;2023-02-04T04:01:29;12.18;;;2.22;;
37593;SDS011;23441;50.856;6.076;2023-02-04T04:03:55;16.48;;;3.63;;
37593;SDS011;23441;50.856;6.076;2023-02-04T04:06:20;17.23;;;3.00;;
37593;SDS011;23441;50.856;6.076;2023-02-04T04:08:46;15.55;;;3.33;;
37593;SDS011;23441;50.856;6.076;2023-02-04T04:11:12;16.27;;;2.92;;
37593;SDS011;23441;50.856;6.076;2023-02-04T04:13:37;13.63;;;2.80;;
37593;SDS011;23441;50.856;6.076;2023-02-04T04:16:03;18.05;;;2.95;;
37593;SDS011;23441;50.856;6.076;2023-02-04T04:18:29;14.88;;;3.13;;
37593;SDS011;23441;50.856;6.076;2023-02-04T04:20:56;14.10;;;3.67;;
37593;SDS011;23441;50.856;6.076;2023-02-04T04:23:23;15.85;;;3.00;;
37593;SDS011;23441;50.856;6.076;2023-02-04T04:25:48;25.17;;;3.35;;
37593;SDS011;23441;50.856;6.076;2023-02-04T04:28:14;17.67;;;2.70;;
37593;SDS011;23441;50.856;6.076;2023-02-04T04:30:40;9.65;;;2.67;;
37593;SDS011;23441;50.856;6.076;2023-02-04T04:33:06;12.73;;;3.47;;
37593;SDS011;23441;50.856;6.076;2023-02-04T04:35:31;18.38;;;3.70;;
37593;SDS011;23441;50.856;6.076;2023-02-04T04:37:58;17.27;;;3.28;;
37593;SDS011;23441;50.856;6.076;2023-02-04T04:40:24;10.70;;;3.20;;
37593;SDS011;23441;50.856;6.076;2023-02-04T04:42:50;18.70;;;3.63;;
37593;SDS011;23441;50.856;6.076;2023-02-04T04:45:16;19.00;;;3.22;;
37593;SDS011;23441;50.856;6.076;2023-02-04T04:47:42;13.98;;;3.67;;
37593;SDS011;23441;50.856;6.076;2023-02-04T04:50:08;13.73;;;3.63;;
37593;SDS011;23441;50.856;6.076;2023-02-04T04:52:33;15.13;;;3.70;;
37593;SDS011;23441;50.856;6.076;2023-02-04T04:54:59;14.52;;;4.03;;
37593;SDS011;23441;50.856;6.076;2023-02-04T04:57:25;25.48;;;4.57;;
37593;SDS011;23441;50.856;6.076;2023-02-04T04:59:50;17.40;;;4.38;;
37593;SDS011;23441;50.856;6.076;2023-02-04T05:02:16;15.20;;;3.63;;
37593;SDS011;23441;50.856;6.076;2023-02-04T05:04:41;18.15;;;4.00;;
37593;SDS011;23441;50.856;6.076;2023-02-04T05:07:07;12.40;;;3.58;;
37593;SDS011;23441;50.856;6.076;2023-02-04T05:09:32;19.02;;;4.00;;
37593;SDS011;23441;50.856;6.076;2023-02-04T05:11:58;23.92;;;4.85;;
37593;SDS011;23441;50.856;6.076;2023-02-04T05:14:24;22.90;;;4.57;;
37593;SDS011;23441;50.856;6.076;2023-02-04T05:16:49;28.73;;;4.00;;
37593;SDS011;23441;50.856;6.076;2023-02-04T05:19:15;18.83;;;3.85;;
37593;SDS011;23441;50.856;6.076;2023-02-04T05:21:40;21.77;;;4.32;;
37593;SDS011;23441;50.856;6.076;2023-02-04T05:24:06;19.52;;;4.80;;
37593;SDS011;23441;50.856;6.076;2023-02-04T05:26:32;21.65;;;4.32;;
37593;SDS011;23441;50.856;6.076;2023-02-04T05:28:58;22.27;;;5.93;;
37593;SDS011;23441;50.856;6.076;2023-02-04T05:31:24;23.50;;;4.65;;
37593;SDS011;23441;50.856;6.076;2023-02-04T05:33:50;21.40;;;3.97;;
37593;SDS011;23441;50.856;6.076;2023-02-04T05:36:15;14.68;;;4.45;;
37593;SDS011;23441;50.856;6.076;2023-02-04T05:38:42;16.73;;;4.38;;
37593;SDS011;23441;50.856;6.076;2023-02-04T05:41:08;22.52;;;4.65;;
37593;SDS011;23441;50.856;6.076;2023-02-04T05:43:33;15.77;;;4.63;;
37593;SDS011;23441;50.856;6.076;2023-02-04T05:45:59;23.52;;;4.60;;
37593;SDS011;23441;50.856;6.076;2023-02-04T05:48:25;25.20;;;4.40;;
37593;SDS011;23441;50.856;6.076;2023-02-04T05:50:51;16.92;;;4.47;;
37593;SDS011;23441;50.856;6.076;2023-02-04T05:53:16;17.25;;;5.07;;
37593;SDS011;23441;50.856;6.076;2023-02-04T05:55:42;19.38;;;4.47;;
37593;SDS011;23441;50.856;6.076;2023-02-04T05:58:08;23.83;;;4.95;;
37593;SDS011;23441;50.856;6.076;2023-02-04T06:00:33;20.05;;;5.72;;
37593;SDS011;23441;50.856;6.076;2023-02-04T06:02:59;19.17;;;5.05;;
37593;SDS011;23441;50.856;6.076;2023-02-04T06:05:25;20.38;;;5.57;;
37593;SDS011;23441;50.856;6.076;2023-02-04T06:07:51;22.67;;;5.55;;
37593;SDS011;23441;50.856;6.076;2023-02-04T06:10:16;24.05;;;5.78;;
37593;SDS011;23441;50.856;6.076;2023-02-04T06:12:42;26.65;;;6.35;;
37593;SDS011;23441;50.856;6.076;2023-02-04T06:15:08;23.45;;;6.95;;
37593;SDS011;23441;50.856;6.076;2023-02-04T06:17:34;26.10;;;7.10;;
37593;SDS011;23441;50.856;6.076;2023-02-04T06:19:59;31.98;;;9.25;;
37593;SDS011;23441;50.856;6.076;2023-02-04T06:22:25;29.10;;;8.13;;
37593;SDS011;23441;50.856;6.076;2023-02-04T06:24:51;32.88;;;7.95;;
37593;SDS011;23441;50.856;6.076;2023-02-04T06:27:16;27.55;;;9.15;;
37593;SDS011;23441;50.856;6.076;2023-02-04T06:29:51;27.15;;;8.65;;
37593;SDS011;23441;50.856;6.076;2023-02-04T06:32:17;26.00;;;9.75;;
37593;SDS011;23441;50.856;6.076;2023-02-04T06:34:44;29.20;;;9.35;;
37593;SDS011;23441;50.856;6.076;2023-02-04T06:37:10;34.33;;;10.93;;
37593;SDS011;23441;50.856;6.076;2023-02-04T06:39:36;33.08;;;9.55;;
37593;SDS011;23441;50.856;6.076;2023-02-04T06:42:02;37.85;;;10.88;;
37593;SDS011;23441;50.856;6.076;2023-02-04T06:44:28;51.72;;;11.48;;
37593;SDS011;23441;50.856;6.076;2023-02-04T06:46:54;40.70;;;11.00;;
37593;SDS011;23441;50.856;6.076;2023-02-04T06:49:19;35.88;;;10.43;;
37593;SDS011;23441;50.856;6.076;2023-02-04T06:51:45;37.10;;;9.63;;
37593;SDS011;23441;50.856;6.076;2023-02-04T06:54:12;41.92;;;10.80;;
37593;SDS011;23441;50.856;6.076;2023-02-04T06:56:38;37.53;;;10.20;;
37593;SDS011;23441;50.856;6.076;2023-02-04T06:59:04;33.70;;;10.15;;
37593;SDS011;23441;50.856;6.076;2023-02-04T07:01:30;40.90;;;10.93;;
37593;SDS011;23441;50.856;6.076;2023-02-04T07:03:55;33.30;;;9.95;;
37593;SDS011;23441;50.856;6.076;2023-02-04T07:06:21;32.10;;;10.18;;
37593;SDS011;23441;50.856;6.076;2023-02-04T07:08:46;35.15;;;11.15;;
37593;SDS011;23441;50.856;6.076;2023-02-04T07:11:13;34.08;;;11.30;;
37593;SDS011;23441;50.856;6.076;2023-02-04T07:13:39;39.95;;;11.40;;
37593;SDS011;23441;50.856;6.076;2023-02-04T07:16:05;30.95;;;10.52;;
37593;SDS011;23441;50.856;6.076;2023-02-04T07:18:31;34.92;;;12.70;;
37593;SDS011;23441;50.856;6.076;2023-02-04T07:20:57;38.92;;;11.57;;
37593;SDS011;23441;50.856;6.076;2023-02-04T07:23:22;31.67;;;11.15;;
37593;SDS011;23441;50.856;6.076;2023-02-04T07:25:49;40.38;;;12.32;;
37593;SDS011;23441;50.856;6.076;2023-02-04T07:28:17;43.17;;;11.45;;
37593;SDS011;23441;50.856;6.076;2023-02-04T07:30:44;40.58;;;12.05;;
37593;SDS011;23441;50.856;6.076;2023-02-04T07:33:10;38.58;;;12.93;;
37593;SDS011;23441;50.856;6.076;2023-02-04T07:35:35;35.83;;;13.07;;
37593;SDS011;23441;50.856;6.076;2023-02-04T07:38:04;49.30;;;13.48;;
37593;SDS011;23441;50.856;6.076;2023-02-04T07:40:30;57.15;;;14.77;;
37593;SDS011;23441;50.856;6.076;2023-02-04T07:42:56;36.60;;;13.35;;
37593;SDS011;23441;50.856;6.076;2023-02-04T07:45:22;47.67;;;14.43;;
37593;SDS011;23441;50.856;6.076;2023-02-04T07:47:48;51.05;;;14.20;;
37593;SDS011;23441;50.856;6.076;2023-02-04T07:50:13;43.55;;;14.20;;
37593;SDS011;23441;50.856;6.076;2023-02-04T07:52:40;47.17;;;13.85;;
37593;SDS011;23441;50.856;6.076;2023-02-04T07:55:06;52.60;;;14.48;;
37593;SDS011;23441;50.856;6.076;2023-02-04T07:57:32;48.60;;;14.27;;
37593;SDS011;23441;50.856;6.076;2023-02-04T07:59:58;46.45;;;14.65;;
37593;SDS011;23441;50.856;6.076;2023-02-04T08:02:23;45.47;;;15.20;;
37593;SDS011;23441;50.856;6.076;2023-02-04T08:04:49;56.63;;;17.13;;
37593;SDS011;23441;50.856;6.076;2023-02-04T08:07:15;51.00;;;15.32;;
37593;SDS011;23441;50.856;6.076;2023-02-04T08:09:40;44.53;;;14.95;;
37593;SDS011;23441;50.856;6.076;2023-02-04T08:12:06;51.72;;;15.18;;
37593;SDS011;23441;50.856;6.076;2023-02-04T08:14:31;53.38;;;13.85;;
37593;SDS011;23441;50.856;6.076;2023-02-04T08:16:57;45.72;;;14.10;;
37593;SDS011;23441;50.856;6.076;2023-02-04T08:19:23;58.50;;;15.70;;
37593;SDS011;23441;50.856;6.076;2023-02-04T08:21:48;42.35;;;13.00;;
37593;SDS011;23441;50.856;6.076;2023-02-04T08:24:14;48.20;;;14.27;;
37593;SDS011;23441;50.856;6.076;2023-02-04T08:26:41;55.90;;;13.35;;
37593;SDS011;23441;50.856;6.076;2023-02-04T08:29:08;45.55;;;13.85;;
37593;SDS011;23441;50.856;6.076;2023-02-04T08:31:34;46.75;;;14.00;;
37593;SDS011;23441;50.856;6.076;2023-02-04T08:34:01;38.33;;;13.70;;
37593;SDS011;23441;50.856;6.076;2023-02-04T08:36:28;41.85;;;12.65;;
37593;SDS011;23441;50.856;6.076;2023-02-04T08:38:54;35.75;;;12.23;;
37593;SDS011;23441;50.856;6.076;2023-02-04T08:41:20;35.90;;;12.38;;
37593;SDS011;23441;50.856;6.076;2023-02-04T08:43:45;37.15;;;11.90;;
37593;SDS011;23441;50.856;6.076;2023-02-04T08:46:11;49.47;;;12.90;;
37593;SDS011;23441;50.856;6.076;2023-02-04T08:48:37;40.30;;;12.18;;
37593;SDS011;23441;50.856;6.076;2023-02-04T08:51:02;48.05;;;12.32;;
37593;SDS011;23441;50.856;6.076;2023-02-04T08:53:28;38.45;;;11.95;;
37593;SDS011;23441;50.856;6.076;2023-02-04T08:55:54;47.63;;;11.85;;
37593;SDS011;23441;50.856;6.076;2023-02-04T08:58:19;44.85;;;12.88;;
37593;SDS011;23441;50.856;6.076;2023-02-04T09:00:45;43.28;;;12.63;;
37593;SDS011;23441;50.856;6.076;2023-02-04T09:03:11;37.70;;;12.88;;
37593;SDS011;23441;50.856;6.076;2023-02-04T09:05:36;38.38;;;13.63;;
37593;SDS011;23441;50.856;6.076;2023-02-04T09:08:02;41.20;;;13.07;;
37593;SDS011;23441;50.856;6.076;2023-02-04T09:10:27;41.67;;;13.65;;
37593;SDS011;23441;50.856;6.076;2023-02-04T09:12:54;47.70;;;15.20;;
37593;SDS011;23441;50.856;6.076;2023-02-04T09:15:20;45.25;;;14.50;;
37593;SDS011;23441;50.856;6.076;2023-02-04T09:17:48;52.75;;;14.82;;
37593;SDS011;23441;50.856;6.076;2023-02-04T09:20:14;41.90;;;13.60;;
37593;SDS011;23441;50.856;6.076;2023-02-04T09:22:40;46.33;;;14.40;;
37593;SDS011;23441;50.856;6.076;2023-02-04T09:25:05;42.60;;;14.75;;
37593;SDS011;23441;50.856;6.076;2023-02-04T09:27:32;41.15;;;13.98;;
37593;SDS011;23441;50.856;6.076;2023-02-04T09:29:58;37.72;;;14.30;;
37593;SDS011;23441;50.856;6.076;2023-02-04T09:32:24;38.60;;;13.98;;
37593;SDS011;23441;50.856;6.076;2023-02-04T09:34:49;36.20;;;13.35;;
37593;SDS011;23441;50.856;6.076;2023-02-04T09:37:15;40.72;;;14.05;;
37593;SDS011;23441;50.856;6.076;2023-02-04T09:39:41;38.28;;;13.60;;
37593;SDS011;23441;50.856;6.076;2023-02-04T09:42:08;43.17;;;13.20;;
37593;SDS011;23441;50.856;6.076;2023-02-04T09:44:37;47.70;;;13.77;;
37593;SDS011;23441;50.856;6.076;2023-02-04T09:47:03;49.15;;;13.68;;
37593;SDS011;23441;50.856;6.076;2023-02-04T09:49:29;43.58;;;13.82;;
37593;SDS011;23441;50.856;6.076;2023-02-04T09:51:55;33.40;;;12.50;;
37593;SDS011;23441;50.856;6.076;2023-02-04T09:54:21;36.38;;;11.75;;
37593;SDS011;23441;50.856;6.076;2023-02-04T09:56:48;40.65;;;12.50;;
37593;SDS011;23441;50.856;6.076;2023-02-04T09:59:15;34.38;;;14.55;;
37593;SDS011;23441;50.856;6.076;2023-02-04T10:01:44;46.00;;;12.85;;
37593;SDS011;23441;50.856;6.076;2023-02-04T10:04:30;33.65;;;12.15;;
37593;SDS011;23441;50.856;6.076;2023-02-04T10:06:56;33.10;;;12.25;;
37593;SDS011;23441;50.856;6.076;2023-02-04T10:09:22;28.25;;;11.35;;
37593;SDS011;23441;50.856;6.076;2023-02-04T10:11:48;32.65;;;10.75;;
37593;SDS011;23441;50.856;6.076;2023-02-04T10:14:15;40.08;;;12.40;;
37593;SDS011;23441;50.856;6.076;2023-02-04T10:16:44;36.78;;;12.93;;
37593;SDS011;23441;50.856;6.076;2023-02-04T10:19:23;29.83;;;11.93;;
37593;SDS011;23441;50.856;6.076;2023-02-04T10:21:51;37.50;;;11.55;;
37593;SDS011;23441;50.856;6.076;2023-02-04T10:24:20;38.30;;;12.25;;
37593;SDS011;23441;50.856;6.076;2023-02-04T10:26:51;37.80;;;10.60;;
37593;SDS011;23441;50.856;6.076;2023-02-04T10:29:18;43.15;;;13.40;;
37593;SDS011;23441;50.856;6.076;2023-02-04T10:31:47;36.10;;;10.80;;
37593;SDS011;23441;50.856;6.076;2023-02-04T10:34:21;33.20;;;9.38;;
37593;SDS011;23441;50.856;6.076;2023-02-04T10:37:19;30.60;;;9.65;;
37593;SDS011;23441;50.856;6.076;2023-02-04T10:39:46;36.22;;;10.27;;
37593;SDS011;23441;50.856;6.076;2023-02-04T10:42:22;31.45;;;10.90;;
37593;SDS011;23441;50.856;6.076;2023-02-04T10:44:52;44.45;;;10.77;;
37593;SDS011;23441;50.856;6.076;2023-02-04T10:47:19;31.80;;;9.20;;
37593;SDS011;23441;50.856;6.076;2023-02-04T10:52:51;32.15;;;11.52;;
37593;SDS011;23441;50.856;6.076;2023-02-04T10:55:43;36.28;;;10.98;;
37593;SDS011;23441;50.856;6.076;2023-02-04T10:58:14;28.33;;;10.18;;
37593;SDS011;23441;50.856;6.076;2023-02-04T11:00:44;32.15;;;11.23;;
37593;SDS011;23441;50.856;6.076;2023-02-04T11:03:11;31.85;;;10.93;;
37593;SDS011;23441;50.856;6.076;2023-02-04T11:05:50;29.45;;;10.95;;
37593;SDS011;23441;50.856;6.076;2023-02-04T11:10:48;35.53;;;11.00;;
37593;SDS011;23441;50.856;6.076;2023-02-04T11:13:38;31.75;;;10.57;;
37593;SDS011;23441;50.856;6.076;2023-02-04T11:24:32;36.80;;;9.73;;
37593;SDS011;23441;50.856;6.076;2023-02-04T11:27:16;29.58;;;8.98;;
37593;SDS011;23441;50.856;6.076;2023-02-04T11:29:47;37.15;;;11.45;;
37593;SDS011;23441;50.856;6.076;2023-02-04T11:32:27;38.97;;;10.30;;
37593;SDS011;23441;50.856;6.076;2023-02-04T11:34:52;41.25;;;12.38;;
37593;SDS011;23441;50.856;6.076;2023-02-04T11:37:33;31.63;;;11.43;;
37593;SDS011;23441;50.856;6.076;2023-02-04T11:40:10;33.00;;;11.57;;
37593;SDS011;23441;50.856;6.076;2023-02-04T11:42:59;35.25;;;11.45;;
37593;SDS011;23441;50.856;6.076;2023-02-04T11:45:36;42.72;;;12.07;;
37593;SDS011;23441;50.856;6.076;2023-02-04T11:48:09;33.15;;;10.75;;
37593;SDS011;23441;50.856;6.076;2023-02-04T11:50:58;28.30;;;8.25;;
37593;SDS011;23441;50.856;6.076;2023-02-04T11:53:29;33.38;;;8.63;;
37593;SDS011;23441;50.856;6.076;2023-02-04T11:55:56;27.77;;;7.07;;
37593;SDS011;23441;50.856;6.076;2023-02-04T11:58:22;27.35;;;6.55;;
37593;SDS011;23441;50.856;6.076;2023-02-04T12:00:50;23.67;;;8.07;;
37593;SDS011;23441;50.856;6.076;2023-02-04T12:05:48;32.83;;;8.45;;
37593;SDS011;23441;50.856;6.076;2023-02-04T12:13:27;25.92;;;8.10;;
37593;SDS011;23441;50.856;6.076;2023-02-04T12:15:54;30.10;;;8.25;;
37593;SDS011;23441;50.856;6.076;2023-02-04T12:18:23;26.25;;;6.85;;
37593;SDS011;23441;50.856;6.076;2023-02-04T12:20:51;25.75;;;7.03;;
37593;SDS011;23441;50.856;6.076;2023-02-04T12:23:18;25.17;;;7.25;;
37593;SDS011;23441;50.856;6.076;2023-02-04T12:25:43;29.30;;;7.95;;
37593;SDS011;23441;50.856;6.076;2023-02-04T12:28:09;27.88;;;7.65;;
37593;SDS011;23441;50.856;6.076;2023-02-04T12:30:34;20.88;;;6.60;;
37593;SDS011;23441;50.856;6.076;2023-02-04T12:33:00;24.75;;;7.22;;
37593;SDS011;23441;50.856;6.076;2023-02-04T12:35:26;22.90;;;6.07;;
37593;SDS011;23441;50.856;6.076;2023-02-04T12:37:52;27.23;;;6.05;;
37593;SDS011;23441;50.856;6.076;2023-02-04T12:40:19;29.77;;;7.03;;
37593;SDS011;23441;50.856;6.076;2023-02-04T12:42:45;29.20;;;7.72;;
37593;SDS011;23441;50.856;6.076;2023-02-04T12:45:12;21.80;;;7.07;;
37593;SDS011;23441;50.856;6.076;2023-02-04T12:47:39;28.90;;;7.35;;
37593;SDS011;23441;50.856;6.076;2023-02-04T12:50:06;28.73;;;7.53;;
37593;SDS011;23441;50.856;6.076;2023-02-04T12:52:32;30.35;;;7.30;;
37593;SDS011;23441;50.856;6.076;2023-02-04T12:54:58;32.53;;;8.23;;
37593;SDS011;23441;50.856;6.076;2023-02-04T12:57:25;28.30;;;7.57;;
37593;SDS011;23441;50.856;6.076;2023-02-04T12:59:51;23.52;;;7.75;;
37593;SDS011;23441;50.856;6.076;2023-02-04T13:02:16;22.77;;;8.27;;
37593;SDS011;23441;50.856;6.076;2023-02-04T13:04:42;25.88;;;9.20;;
37593;SDS011;23441;50.856;6.076;2023-02-04T13:07:08;29.13;;;9.07;;
37593;SDS011;23441;50.856;6.076;2023-02-04T13:09:34;23.63;;;8.82;;
37593;SDS011;23441;50.856;6.076;2023-02-04T13:12:01;31.35;;;10.05;;
37593;SDS011;23441;50.856;6.076;2023-02-04T13:14:27;25.35;;;9.32;;
37593;SDS011;23441;50.856;6.076;2023-02-04T13:16:52;22.83;;;8.27;;
37593;SDS011;23441;50.856;6.076;2023-02-04T13:19:18;26.35;;;8.57;;
37593;SDS011;23441;50.856;6.076;2023-02-04T13:21:43;23.27;;;8.90;;
37593;SDS011;23441;50.856;6.076;2023-02-04T13:24:09;32.70;;;9.57;;
37593;SDS011;23441;50.856;6.076;2023-02-04T13:26:35;29.65;;;9.63;;
37593;SDS011;23441;50.856;6.076;2023-02-04T13:29:00;30.70;;;9.27;;
37593;SDS011;23441;50.856;6.076;2023-02-04T13:31:26;24.52;;;9.10;;
37593;SDS011;23441;50.856;6.076;2023-02-04T13:33:52;24.63;;;8.73;;
37593;SDS011;23441;50.856;6.076;2023-02-04T13:36:18;24.58;;;9.15;;
37593;SDS011;23441;50.856;6.076;2023-02-04T13:38:44;26.88;;;9.05;;
37593;SDS011;23441;50.856;6.076;2023-02-04T13:41:09;26.70;;;9.85;;
37593;SDS011;23441;50.856;6.076;2023-02-04T13:43:35;25.75;;;9.68;;
37593;SDS011;23441;50.856;6.076;2023-02-04T13:46:00;29.27;;;10.68;;
37593;SDS011;23441;50.856;6.076;2023-02-04T13:48:28;33.22;;;11.70;;
37593;SDS011;23441;50.856;6.076;2023-02-04T13:50:53;34.55;;;10.57;;
37593;SDS011;23441;50.856;6.076;2023-02-04T13:53:19;32.53;;;9.93;;
37593;SDS011;23441;50.856;6.076;2023-02-04T13:55:45;30.38;;;10.85;;
37593;SDS011;23441;50.856;6.076;2023-02-04T13:58:10;29.20;;;11.07;;
37593;SDS011;23441;50.856;6.076;2023-02-04T14:00:36;26.77;;;10.05;;
37593;SDS011;23441;50.856;6.076;2023-02-04T14:03:01;26.45;;;10.77;;
37593;SDS011;23441;50.856;6.076;2023-02-04T14:05:28;27.80;;;10.52;;
37593;SDS011;23441;50.856;6.076;2023-02-04T14:07:53;29.88;;;10.65;;
37593;SDS011;23441;50.856;6.076;2023-02-04T14:10:19;25.80;;;11.32;;
37593;SDS011;23441;50.856;6.076;2023-02-04T14:12:48;22.92;;;11.07;;
37593;SDS011;23441;50.856;6.076;2023-02-04T14:15:15;27.45;;;11.02;;
37593;SDS011;23441;50.856;6.076;2023-02-04T14:17:41;31.95;;;11.50;;
37593;SDS011;23441;50.856;6.076;2023-02-04T14:20:06;27.23;;;10.15;;
37593;SDS011;23441;50.856;6.076;2023-02-04T14:22:32;38.33;;;10.13;;
37593;SDS011;23441;50.856;6.076;2023-02-04T14:24:58;27.70;;;10.98;;
37593;SDS011;23441;50.856;6.076;2023-02-04T14:27:24;29.67;;;9.93;;
37593;SDS011;23441;50.856;6.076;2023-02-04T14:29:49;23.50;;;8.35;;
37593;SDS011;23441;50.856;6.076;2023-02-04T14:32:15;28.65;;;9.20;;
37593;SDS011;23441;50.856;6.076;2023-02-04T14:34:41;20.90;;;6.85;;
37593;SDS011;23441;50.856;6.076;2023-02-04T14:37:06;27.08;;;8.05;;
37593;SDS011;23441;50.856;6.076;2023-02-04T14:39:32;21.98;;;6.88;;
37593;SDS011;23441;50.856;6.076;2023-02-04T14:41:57;20.38;;;6.43;;
37593;SDS011;23441;50.856;6.076;2023-02-04T14:44:23;36.58;;;6.90;;
37593;SDS011;23441;50.856;6.076;2023-02-04T14:46:49;22.67;;;6.97;;
37593;SDS011;23441;50.856;6.076;2023-02-04T14:49:14;22.73;;;6.25;;
37593;SDS011;23441;50.856;6.076;2023-02-04T14:51:41;18.25;;;5.90;;
37593;SDS011;23441;50.856;6.076;2023-02-04T14:54:07;27.00;;;6.47;;